Time;durP1;ratioP1;P1;durP2;ratioP2;P2;SDS_P1;SDS_P2;PMS_P1;PMS_P2;Temp;Humidity;BMP_temperature;BMP_pressure;BME280_temperature;BME280_humidity;BME280_pressure;Samples;Min_cycle;Max_cycle;Signal;HPM_P1;HPM_P2
2022/08/19 00:00:15;;;;;;;11.08;10.08;;;23.60;67.90;;;;;;927428;152;27986;-75
2022/08/19 00:02:42;;;;;;;11.25;10.28;;;23.60;67.80;;;;;;928116;154;27469;-75
2022/08/19 00:05:08;;;;;;;12.13;10.93;;;23.60;67.90;;;;;;936414;150;27455;-75
2022/08/19 00:07:35;;;;;;;10.43;9.53;;;23.60;67.90;;;;;;935875;150;27388;-75
2022/08/19 00:10:01;;;;;;;11.53;10.45;;;23.60;67.90;;;;;;927684;152;27384;-75
2022/08/19 00:12:28;;;;;;;12.10;10.90;;;23.70;67.90;;;;;;927613;154;27374;-75
2022/08/19 00:14:55;;;;;;;10.60;9.60;;;23.70;68.20;;;;;;936356;150;27400;-75
2022/08/19 00:17:21;;;;;;;11.08;10.08;;;23.70;67.80;;;;;;931165;154;27376;-75
2022/08/19 00:19:48;;;;;;;11.65;10.65;;;23.70;67.80;;;;;;930985;151;27359;-75
2022/08/19 00:22:15;;;;;;;10.95;10.00;;;23.70;67.90;;;;;;931712;154;27781;-75
2022/08/19 00:24:43;;;;;;;11.65;10.65;;;23.70;68.50;;;;;;931196;153;27413;-75
2022/08/19 00:27:08;;;;;;;11.55;9.80;;;23.70;67.90;;;;;;931266;153;27936;-75
2022/08/19 00:29:34;;;;;;;10.48;9.58;;;23.70;67.90;;;;;;930862;151;27375;-75
2022/08/19 00:32:01;;;;;;;11.68;10.48;;;23.70;67.90;;;;;;931246;151;28159;-75
2022/08/19 00:34:28;;;;;;;10.90;9.88;;;23.70;67.90;;;;;;931442;154;27341;-75
2022/08/19 00:36:54;;;;;;;10.72;9.55;;;23.70;67.90;;;;;;931139;153;27903;-75
2022/08/19 00:39:21;;;;;;;10.30;9.40;;;23.70;67.90;;;;;;931140;151;27371;-75
2022/08/19 00:41:48;;;;;;;9.78;8.88;;;23.70;67.80;;;;;;931147;153;27426;-74
2022/08/19 00:44:14;;;;;;;9.68;8.68;;;23.70;67.80;;;;;;930916;154;27460;-75
2022/08/19 00:46:40;;;;;;;9.83;8.85;;;23.70;67.80;;;;;;932852;150;27388;-75
2022/08/19 00:49:10;;;;;;;10.50;9.60;;;23.70;67.80;;;;;;936209;150;27357;-75
2022/08/19 00:51:36;;;;;;;10.18;9.18;;;23.70;67.70;;;;;;935892;153;27381;-75
2022/08/19 00:54:03;;;;;;;11.55;10.45;;;23.60;67.50;;;;;;936393;151;27503;-75
2022/08/19 00:56:30;;;;;;;10.53;9.53;;;23.70;67.50;;;;;;936191;153;27469;-75
2022/08/19 00:58:56;;;;;;;10.40;9.33;;;23.60;67.50;;;;;;935934;150;27474;-75
2022/08/19 01:01:23;;;;;;;10.48;9.48;;;23.60;67.50;;;;;;935333;150;28064;-75
2022/08/19 01:03:49;;;;;;;10.55;9.50;;;23.60;67.40;;;;;;936741;150;27420;-75
2022/08/19 01:06:16;;;;;;;10.65;9.65;;;23.60;67.40;;;;;;936314;153;27476;-75
2022/08/19 01:08:42;;;;;;;9.73;8.93;;;23.60;67.40;;;;;;936132;150;28831;-75
2022/08/19 01:11:09;;;;;;;9.78;8.95;;;23.60;67.40;;;;;;935805;153;27493;-75
2022/08/19 01:13:35;;;;;;;10.08;9.10;;;23.50;67.30;;;;;;936137;153;27462;-75
2022/08/19 01:16:02;;;;;;;10.60;9.60;;;23.50;67.40;;;;;;936586;150;27344;-75
2022/08/19 01:18:29;;;;;;;9.03;8.25;;;23.50;67.40;;;;;;936142;150;27480;-75
2022/08/19 01:20:55;;;;;;;10.40;9.48;;;23.50;67.50;;;;;;936045;153;27379;-75
2022/08/19 01:23:42;;;;;;;10.03;9.05;;;23.50;67.50;;;;;;935745;153;27644;-75
2022/08/19 01:25:49;;;;;;;10.08;9.08;;;23.50;67.50;;;;;;934619;153;27440;-75
2022/08/19 01:28:18;;;;;;;10.53;9.60;;;23.50;67.60;;;;;;935399;150;28064;-74
2022/08/19 01:30:44;;;;;;;10.38;9.40;;;23.50;67.70;;;;;;939195;150;27982;-75
2022/08/19 01:33:11;;;;;;;10.38;9.48;;;23.50;67.70;;;;;;939662;150;27350;-75
2022/08/19 01:35:38;;;;;;;10.43;9.53;;;23.50;67.70;;;;;;939769;150;27329;-75
2022/08/19 01:38:07;;;;;;;10.50;9.50;;;23.50;67.80;;;;;;940065;150;27364;-75
2022/08/19 01:40:31;;;;;;;10.60;9.43;;;23.50;67.80;;;;;;939225;150;27899;-75
2022/08/19 01:42:57;;;;;;;11.43;9.98;;;23.40;67.80;;;;;;939914;150;27408;-75
2022/08/19 01:45:24;;;;;;;10.10;9.10;;;23.50;67.80;;;;;;939826;150;27369;-75
2022/08/19 01:47:51;;;;;;;10.95;9.85;;;23.50;67.90;;;;;;934960;150;27321;-75
2022/08/19 01:50:17;;;;;;;10.48;9.50;;;23.40;67.80;;;;;;940728;150;27405;-75
2022/08/19 01:52:44;;;;;;;10.63;9.70;;;23.40;67.90;;;;;;940574;152;27313;-75
2022/08/19 01:55:11;;;;;;;10.03;9.05;;;23.40;68.00;;;;;;940851;151;27343;-75
2022/08/19 01:57:37;;;;;;;11.28;9.40;;;23.40;68.00;;;;;;933149;152;27281;-75
2022/08/19 02:00:05;;;;;;;10.70;9.60;;;23.40;68.20;;;;;;945754;149;27328;-75
2022/08/19 02:02:30;;;;;;;10.32;9.38;;;23.40;68.20;;;;;;945658;149;27300;-75
2022/08/19 02:04:57;;;;;;;10.50;9.50;;;23.30;68.30;;;;;;932918;153;27360;-75
2022/08/19 02:07:23;;;;;;;10.50;9.50;;;23.40;68.30;;;;;;940321;152;27445;-75
2022/08/19 02:09:50;;;;;;;10.03;9.13;;;23.30;68.30;;;;;;940608;150;27442;-75
2022/08/19 02:12:17;;;;;;;9.03;8.15;;;23.40;68.50;;;;;;940520;152;28309;-75
2022/08/19 02:14:43;;;;;;;10.70;9.78;;;23.40;68.50;;;;;;913653;153;27412;-75
2022/08/19 02:17:10;;;;;;;10.23;9.23;;;23.40;68.60;;;;;;940539;151;27322;-75
2022/08/19 02:19:36;;;;;;;9.45;8.58;;;23.40;68.70;;;;;;940536;150;27465;-75
2022/08/19 02:22:03;;;;;;;10.03;9.13;;;23.40;68.80;;;;;;940855;152;27441;-75
2022/08/19 02:24:29;;;;;;;9.35;8.55;;;23.40;68.90;;;;;;940173;152;27449;-75
2022/08/19 02:26:57;;;;;;;9.55;8.48;;;23.40;68.90;;;;;;940360;152;27410;-75
2022/08/19 02:29:23;;;;;;;8.63;7.78;;;23.40;68.90;;;;;;939832;150;27876;-75
2022/08/19 02:31:50;;;;;;;9.68;8.78;;;23.50;68.90;;;;;;940890;152;27344;-75
2022/08/19 02:34:16;;;;;;;9.40;8.55;;;23.50;68.90;;;;;;911599;153;27397;-75
2022/08/19 02:36:42;;;;;;;9.08;8.30;;;23.50;68.80;;;;;;933601;152;27305;-75
2022/08/19 02:39:09;;;;;;;9.83;8.88;;;23.50;68.80;;;;;;945457;149;27475;-75
2022/08/19 02:41:36;;;;;;;9.83;8.93;;;23.50;68.80;;;;;;933576;152;27312;-75
2022/08/19 02:44:03;;;;;;;9.60;8.60;;;23.50;68.80;;;;;;940998;149;27449;-75
2022/08/19 02:46:29;;;;;;;9.45;8.65;;;23.50;68.80;;;;;;939720;150;27354;-75
2022/08/19 02:48:55;;;;;;;8.98;8.18;;;23.50;68.80;;;;;;947955;148;27410;-75
2022/08/19 02:51:25;;;;;;;9.48;8.58;;;23.40;68.80;;;;;;950883;148;27330;-75
2022/08/19 02:53:54;;;;;;;10.13;9.28;;;23.40;68.90;;;;;;951583;150;27327;-75
2022/08/19 02:56:18;;;;;;;9.28;8.48;;;23.40;69.00;;;;;;920937;153;27472;-75
2022/08/19 02:58:45;;;;;;;9.05;8.25;;;23.40;69.10;;;;;;922893;152;27515;-75
2022/08/19 03:01:12;;;;;;;9.38;8.58;;;23.40;69.10;;;;;;923448;152;28079;-75
2022/08/19 03:03:38;;;;;;;9.25;8.35;;;23.40;69.20;;;;;;951817;148;27298;-75
2022/08/19 03:06:10;;;;;;;8.80;8.03;;;23.30;69.20;;;;;;951790;148;27404;-75
2022/08/19 03:08:36;;;;;;;10.45;8.30;;;23.30;69.30;;;;;;951709;148;27376;-75
2022/08/19 03:11:03;;;;;;;10.05;9.05;;;23.30;69.40;;;;;;951908;148;27444;-75
2022/08/19 03:13:30;;;;;;;9.53;8.63;;;23.30;69.40;;;;;;951550;150;27462;-75
2022/08/19 03:15:56;;;;;;;9.25;8.45;;;23.30;69.50;;;;;;950978;150;27307;-75
2022/08/19 03:18:23;;;;;;;8.98;8.18;;;23.30;69.60;;;;;;951457;148;27738;-75
2022/08/19 03:20:49;;;;;;;9.13;8.23;;;23.30;69.80;;;;;;923259;153;27405;-75
2022/08/19 03:23:16;;;;;;;8.88;8.08;;;23.20;69.70;;;;;;924282;152;27315;-75
2022/08/19 03:25:43;;;;;;;9.58;8.68;;;23.20;69.80;;;;;;951794;150;27295;-75
2022/08/19 03:28:12;;;;;;;9.23;8.28;;;23.20;69.90;;;;;;951153;148;27418;-75
2022/08/19 03:30:40;;;;;;;8.88;7.87;;;23.20;70.00;;;;;;940777;150;27272;-75
2022/08/19 03:33:05;;;;;;;8.40;7.60;;;23.20;70.00;;;;;;951227;150;27347;-75
2022/08/19 03:35:32;;;;;;;9.45;8.55;;;23.10;70.10;;;;;;951472;150;27363;-76
2022/08/19 03:38:01;;;;;;;8.28;7.47;;;23.10;70.20;;;;;;951009;148;27318;-74
2022/08/19 03:40:29;;;;;;;8.93;8.13;;;23.10;70.20;;;;;;951313;150;27314;-75
2022/08/19 03:42:54;;;;;;;8.35;7.60;;;23.10;70.30;;;;;;951522;150;27354;-75
2022/08/19 03:45:21;;;;;;;8.55;7.80;;;23.10;70.50;;;;;;951954;148;27370;-75
2022/08/19 03:47:47;;;;;;;8.78;7.80;;;23.10;70.50;;;;;;951764;148;27326;-75
2022/08/19 03:50:14;;;;;;;7.75;7.05;;;23.00;70.60;;;;;;951544;148;27408;-75
2022/08/19 03:52:40;;;;;;;9.58;8.63;;;22.90;70.80;;;;;;951630;150;27325;-75
2022/08/19 03:55:07;;;;;;;8.45;7.72;;;22.90;70.90;;;;;;952022;148;27419;-75
2022/08/19 03:57:34;;;;;;;9.80;8.80;;;22.90;71.00;;;;;;951717;150;27377;-75
2022/08/19 04:00:00;;;;;;;9.18;8.33;;;22.90;71.30;;;;;;951227;148;27416;-75
2022/08/19 04:02:27;;;;;;;10.72;8.65;;;22.90;71.50;;;;;;951502;148;27427;-75
2022/08/19 04:04:54;;;;;;;8.95;8.25;;;22.80;71.60;;;;;;951659;150;27330;-75
2022/08/19 04:07:21;;;;;;;8.85;7.95;;;22.80;71.70;;;;;;950463;148;27247;-75
2022/08/19 04:09:47;;;;;;;9.05;8.25;;;22.80;71.80;;;;;;951510;148;27447;-75
2022/08/19 04:12:14;;;;;;;9.60;8.60;;;22.80;71.10;;;;;;951616;150;27367;-75
2022/08/19 04:14:40;;;;;;;8.78;7.97;;;22.80;72.10;;;;;;940925;150;27358;-75
2022/08/19 04:17:06;;;;;;;8.23;7.45;;;22.80;72.20;;;;;;923742;155;27405;-75
2022/08/19 04:19:33;;;;;;;9.23;8.33;;;22.80;72.40;;;;;;923687;153;27362;-75
2022/08/19 04:21:59;;;;;;;8.28;7.53;;;22.80;72.50;;;;;;923576;153;27496;-75
2022/08/19 04:24:26;;;;;;;8.85;8.05;;;22.80;72.60;;;;;;923677;155;27429;-75
2022/08/19 04:26:53;;;;;;;8.95;8.03;;;22.80;72.70;;;;;;923835;153;27361;-75
2022/08/19 04:29:24;;;;;;;10.65;8.20;;;22.90;72.80;;;;;;951631;148;27306;-75
2022/08/19 04:31:49;;;;;;;8.68;7.78;;;22.90;72.80;;;;;;950808;150;27647;-75
2022/08/19 04:34:15;;;;;;;8.58;7.78;;;22.90;72.80;;;;;;951039;150;27329;-75
2022/08/19 04:36:42;;;;;;;9.10;8.00;;;22.90;72.80;;;;;;950968;148;27337;-75
2022/08/19 04:39:08;;;;;;;8.25;7.45;;;23.00;72.80;;;;;;951154;148;27399;-75
2022/08/19 04:44:20;;;;;;;7.72;7.00;;;23.00;72.70;;;;;;951324;150;27341;-75
2022/08/19 04:46:47;;;;;;;7.85;7.15;;;23.00;72.70;;;;;;951679;148;27329;-75
2022/08/19 04:49:13;;;;;;;7.83;7.12;;;23.00;72.80;;;;;;950717;148;27486;-75
2022/08/19 04:51:40;;;;;;;8.48;7.25;;;23.00;72.90;;;;;;951786;150;27390;-75
2022/08/19 04:54:06;;;;;;;7.72;6.62;;;23.00;73.00;;;;;;951547;150;27323;-75
2022/08/19 04:56:33;;;;;;;8.45;6.58;;;23.00;73.20;;;;;;951339;148;27270;-75
2022/08/19 04:59:03;;;;;;;7.00;6.40;;;23.00;73.50;;;;;;950955;148;27285;-75
2022/08/19 05:01:26;;;;;;;8.30;7.50;;;23.00;73.40;;;;;;951180;148;27871;-75
2022/08/19 05:03:53;;;;;;;7.25;6.55;;;23.00;73.50;;;;;;951027;150;27377;-75
2022/08/19 05:06:19;;;;;;;8.15;7.50;;;23.00;73.50;;;;;;951848;148;28793;-75
2022/08/19 05:08:46;;;;;;;7.15;6.55;;;23.10;73.60;;;;;;922842;152;27400;-75
2022/08/19 05:11:15;;;;;;;7.10;6.42;;;23.10;73.70;;;;;;923221;153;28126;-75
2022/08/19 05:13:42;;;;;;;7.78;7.08;;;23.10;73.80;;;;;;923104;153;27409;-75
2022/08/19 05:16:09;;;;;;;7.45;6.83;;;23.10;73.90;;;;;;923367;153;27743;-75
2022/08/19 05:24:08;;;;;;;9.03;6.28;;;23.10;74.70;;;;;;951664;149;27403;-74
2022/08/19 05:26:31;;;;;;;7.15;5.97;;;23.10;73.90;;;;;;951372;149;27486;-75
2022/08/19 05:28:57;;;;;;;6.78;6.28;;;23.10;74.10;;;;;;951232;148;27439;-75
2022/08/19 05:31:24;;;;;;;7.17;6.53;;;23.20;74.10;;;;;;951519;148;27334;-75
2022/08/19 05:33:50;;;;;;;6.83;6.22;;;23.20;73.30;;;;;;951036;150;27268;-74
2022/08/19 05:36:19;;;;;;;6.97;6.28;;;23.20;74.20;;;;;;951819;148;27371;-74
2022/08/19 05:38:43;;;;;;;6.75;6.15;;;23.20;74.90;;;;;;950590;148;27446;-75
2022/08/19 05:41:10;;;;;;;7.30;6.20;;;23.30;74.70;;;;;;951585;148;27400;-74
2022/08/19 05:43:37;;;;;;;7.50;6.00;;;23.30;74.70;;;;;;941118;150;27276;-75
2022/08/19 05:46:05;;;;;;;6.60;6.00;;;23.40;74.80;;;;;;941024;150;27459;-75
2022/08/19 05:48:31;;;;;;;6.58;6.08;;;23.50;74.90;;;;;;941074;150;27387;-75
2022/08/19 05:50:59;;;;;;;6.78;6.10;;;23.50;74.70;;;;;;935466;150;27409;-75
2022/08/19 05:53:23;;;;;;;8.85;6.35;;;23.60;74.60;;;;;;933341;151;27673;-75
2022/08/19 05:55:50;;;;;;;6.42;5.87;;;23.70;74.60;;;;;;933821;152;27296;-75
2022/08/19 05:58:17;;;;;;;6.50;5.87;;;23.80;74.30;;;;;;933553;151;27294;-75
2022/08/19 06:00:43;;;;;;;9.45;7.08;;;23.80;74.00;;;;;;934059;152;27288;-75
2022/08/19 06:03:09;;;;;;;6.97;6.28;;;23.90;73.80;;;;;;933020;152;27836;-74
2022/08/19 06:05:36;;;;;;;6.55;5.80;;;23.90;73.50;;;;;;933984;152;27269;-75
2022/08/19 06:08:03;;;;;;;6.78;6.15;;;24.00;73.40;;;;;;933207;151;28152;-75
2022/08/19 06:10:29;;;;;;;6.92;6.22;;;24.00;73.20;;;;;;933544;152;27368;-75
2022/08/19 06:12:56;;;;;;;6.22;5.75;;;24.10;73.10;;;;;;933184;152;27229;-74
2022/08/19 06:15:25;;;;;;;6.90;6.03;;;24.10;73.10;;;;;;933000;151;27270;-75
2022/08/19 06:17:49;;;;;;;6.78;5.85;;;24.20;73.10;;;;;;933147;151;27363;-75
2022/08/19 06:20:17;;;;;;;6.80;6.20;;;24.20;72.90;;;;;;932755;151;27300;-75
2022/08/19 06:22:42;;;;;;;6.92;6.22;;;24.30;72.90;;;;;;940213;152;27438;-75
2022/08/19 06:25:11;;;;;;;6.10;5.47;;;24.30;72.80;;;;;;940259;152;27354;-75
2022/08/19 06:27:38;;;;;;;6.45;5.85;;;24.40;72.80;;;;;;933564;152;27342;-75
2022/08/19 06:30:05;;;;;;;6.65;6.15;;;24.50;72.60;;;;;;933464;151;27321;-75
2022/08/19 06:32:31;;;;;;;6.00;5.50;;;24.50;72.40;;;;;;940100;152;27450;-75
2022/08/19 06:34:58;;;;;;;10.13;6.03;;;24.60;72.30;;;;;;940250;150;27918;-75
2022/08/19 06:37:24;;;;;;;7.20;6.30;;;24.60;72.10;;;;;;940595;150;27348;-75
2022/08/19 06:39:51;;;;;;;7.90;6.30;;;24.70;72.20;;;;;;940597;150;27314;-75
2022/08/19 06:42:18;;;;;;;6.92;6.00;;;24.70;71.80;;;;;;940613;152;27843;-74
2022/08/19 06:44:44;;;;;;;6.97;6.28;;;24.80;71.70;;;;;;940457;150;27677;-75
2022/08/19 06:47:11;;;;;;;6.70;6.05;;;24.90;71.70;;;;;;940441;152;27365;-75
2022/08/19 06:49:37;;;;;;;8.00;6.62;;;24.90;71.50;;;;;;940577;150;27302;-75
2022/08/19 06:52:04;;;;;;;6.65;6.05;;;24.90;71.20;;;;;;951468;148;27470;-74
2022/08/19 06:54:31;;;;;;;6.62;5.85;;;25.00;71.10;;;;;;953318;146;27301;-75
2022/08/19 06:56:57;;;;;;;6.00;5.50;;;25.00;71.00;;;;;;952970;146;27380;-75
2022/08/19 06:59:27;;;;;;;6.35;5.85;;;25.10;70.90;;;;;;952153;148;27354;-75
2022/08/19 07:01:50;;;;;;;6.10;5.42;;;25.10;70.60;;;;;;952255;148;27420;-75
2022/08/19 07:04:17;;;;;;;5.75;5.35;;;25.20;70.50;;;;;;952049;148;27449;-75
2022/08/19 07:06:44;;;;;;;5.55;5.15;;;25.20;70.30;;;;;;952060;148;27320;-75
2022/08/19 07:09:10;;;;;;;5.65;5.17;;;25.20;70.20;;;;;;952952;148;27348;-75
2022/08/19 07:11:37;;;;;;;5.95;5.45;;;25.20;70.20;;;;;;952697;148;27353;-75
2022/08/19 07:14:04;;;;;;;5.60;5.20;;;25.20;70.10;;;;;;952121;148;27344;-74
2022/08/19 07:16:30;;;;;;;6.05;5.45;;;25.20;70.00;;;;;;952821;148;27311;-75
2022/08/19 07:18:56;;;;;;;5.95;5.35;;;25.30;70.10;;;;;;952219;148;27265;-75
2022/08/19 07:21:24;;;;;;;5.87;5.37;;;25.30;70.00;;;;;;952229;148;27333;-75
2022/08/19 07:23:50;;;;;;;7.67;5.90;;;25.40;70.00;;;;;;916751;152;28169;-75
2022/08/19 07:26:19;;;;;;;5.78;5.15;;;25.40;69.70;;;;;;935053;153;27366;-75
2022/08/19 07:28:45;;;;;;;5.72;5.22;;;25.50;69.80;;;;;;952014;148;27384;-75
2022/08/19 07:31:15;;;;;;;6.05;4.97;;;25.60;70.00;;;;;;952734;148;27303;-75
2022/08/19 07:33:42;;;;;;;5.78;5.28;;;25.70;70.00;;;;;;952163;148;27400;-75
2022/08/19 07:36:11;;;;;;;5.67;5.10;;;25.80;70.20;;;;;;951150;148;27391;-75
2022/08/19 07:38:35;;;;;;;5.60;5.10;;;25.90;70.00;;;;;;952089;148;28318;-75
2022/08/19 07:41:01;;;;;;;6.45;5.78;;;26.00;69.80;;;;;;952894;148;27381;-75
2022/08/19 07:43:28;;;;;;;5.95;5.33;;;26.20;69.60;;;;;;952340;148;28175;-75
2022/08/19 07:45:56;;;;;;;5.22;4.80;;;26.30;69.20;;;;;;952783;148;27316;-75
2022/08/19 07:48:23;;;;;;;5.78;5.20;;;26.40;68.80;;;;;;952187;148;27428;-75
2022/08/19 07:50:48;;;;;;;4.87;4.35;;;26.60;68.40;;;;;;951802;148;27423;-75
2022/08/19 07:53:14;;;;;;;5.10;4.60;;;26.70;68.00;;;;;;950728;148;27332;-75
2022/08/19 07:55:41;;;;;;;4.75;3.98;;;26.90;67.90;;;;;;951777;148;27391;-75
2022/08/19 07:58:07;;;;;;;4.80;4.40;;;27.00;67.50;;;;;;923038;152;27441;-75
2022/08/19 08:00:35;;;;;;;4.50;4.10;;;27.10;67.10;;;;;;939619;150;27382;-75
2022/08/19 08:03:00;;;;;;;4.47;3.98;;;27.30;66.90;;;;;;939607;150;27364;-75
2022/08/19 08:10:56;;;;;;;5.65;4.33;;;27.70;65.50;;;;;;951666;150;27348;-75
2022/08/19 08:13:23;;;;;;;4.05;3.67;;;27.80;64.80;;;;;;923291;153;27462;-75
2022/08/19 08:15:49;;;;;;;3.98;3.58;;;27.90;64.20;;;;;;939919;150;27492;-75
2022/08/19 08:18:17;;;;;;;6.08;4.00;;;27.90;64.60;;;;;;924273;152;27410;-75
2022/08/19 08:20:43;;;;;;;3.58;3.27;;;28.00;63.20;;;;;;951681;150;27339;-75
2022/08/19 08:23:29;;;;;;;3.60;3.17;;;28.00;62.80;;;;;;951599;150;27324;-75
2022/08/19 08:25:54;;;;;;;3.40;3.10;;;28.00;62.60;;;;;;950973;150;27843;-76
2022/08/19 08:28:21;;;;;;;4.33;3.35;;;28.00;62.00;;;;;;950989;148;27725;-76
2022/08/19 08:30:47;;;;;;;3.90;3.60;;;28.00;61.80;;;;;;951733;149;27342;-76
2022/08/19 08:33:14;;;;;;;3.95;3.62;;;28.00;62.00;;;;;;951254;148;27519;-76
2022/08/19 08:35:45;;;;;;;3.55;3.00;;;28.00;62.10;;;;;;950691;150;27427;-76
2022/08/19 08:38:07;;;;;;;4.28;3.35;;;28.00;61.90;;;;;;950940;148;27409;-76
2022/08/19 08:40:40;;;;;;;3.20;3.00;;;28.10;62.10;;;;;;951414;150;27366;-76
2022/08/19 08:43:26;;;;;;;3.40;3.08;;;28.10;62.10;;;;;;951114;150;27371;-76
2022/08/19 08:45:57;;;;;;;4.08;3.22;;;28.30;62.10;;;;;;950976;148;27359;-76
2022/08/19 08:48:38;;;;;;;2.98;2.77;;;28.40;61.60;;;;;;935223;148;27336;-76
2022/08/19 08:51:05;;;;;;;3.30;3.00;;;28.50;61.20;;;;;;951389;148;27448;-77
2022/08/19 08:53:32;;;;;;;3.47;3.17;;;28.80;61.60;;;;;;951154;150;27317;-77
2022/08/19 08:56:00;;;;;;;3.58;2.98;;;29.10;62.20;;;;;;951329;148;27469;-77
2022/08/19 08:58:25;;;;;;;3.40;2.90;;;29.50;62.50;;;;;;951118;148;27360;-77
2022/08/19 09:00:51;;;;;;;3.60;3.30;;;30.00;61.10;;;;;;950735;148;27287;-77
2022/08/19 09:03:24;;;;;;;3.05;2.80;;;30.50;60.20;;;;;;951756;148;27392;-77
2022/08/19 09:05:50;;;;;;;2.92;2.72;;;31.00;59.30;;;;;;951490;148;27340;-77
2022/08/19 09:08:23;;;;;;;2.55;2.35;;;31.50;58.90;;;;;;951616;148;27368;-77
2022/08/19 09:10:50;;;;;;;2.72;2.52;;;32.20;59.00;;;;;;946928;150;27365;-77
2022/08/19 09:13:38;;;;;;;3.12;2.50;;;32.90;58.50;;;;;;951030;148;27365;-77
2022/08/19 09:16:07;;;;;;;2.40;2.30;;;33.70;57.50;;;;;;951554;148;26348;-77
2022/08/19 09:18:40;;;;;;;2.10;2.00;;;34.60;56.40;;;;;;950970;148;26263;-77
2022/08/19 09:21:08;;;;;;;2.05;1.85;;;35.30;55.20;;;;;;951347;150;26272;-77
2022/08/19 09:23:33;;;;;;;2.20;1.77;;;36.00;53.60;;;;;;951202;150;27358;-77
2022/08/19 09:25:59;;;;;;;2.50;2.02;;;36.60;52.50;;;;;;951914;148;27787;-78
2022/08/19 09:28:29;;;;;;;3.52;2.02;;;37.20;51.30;;;;;;951402;148;26250;-78
2022/08/19 09:30:53;;;;;;;3.08;2.00;;;37.70;50.20;;;;;;950782;149;26168;-78
2022/08/19 09:33:19;;;;;;;2.37;2.17;;;38.20;49.60;;;;;;951783;148;26320;-76
2022/08/19 09:35:46;;;;;;;2.17;1.98;;;38.60;48.90;;;;;;952108;150;26359;-76
2022/08/19 09:38:12;;;;;;;2.22;2.10;;;39.10;48.30;;;;;;951705;148;26257;-76
2022/08/19 09:40:39;;;;;;;2.25;2.15;;;39.40;47.00;;;;;;919042;152;26190;-76
2022/08/19 09:43:06;;;;;;;1.95;1.85;;;39.80;46.60;;;;;;953202;150;26224;-76
2022/08/19 09:45:32;;;;;;;2.08;1.90;;;40.20;46.00;;;;;;953336;150;26233;-76
2022/08/19 09:47:59;;;;;;;2.15;1.95;;;40.40;45.00;;;;;;953311;147;26207;-76
2022/08/19 09:50:25;;;;;;;2.58;2.37;;;40.50;44.10;;;;;;953449;150;28014;-75
2022/08/19 09:52:53;;;;;;;3.95;1.98;;;40.60;42.80;;;;;;936244;150;26339;-75
2022/08/19 09:55:18;;;;;;;2.67;2.05;;;40.40;42.10;;;;;;930656;154;26253;-75
2022/08/19 09:57:45;;;;;;;3.10;2.25;;;40.10;41.60;;;;;;930626;151;26185;-75
2022/08/19 10:00:12;;;;;;;2.50;2.30;;;39.70;41.30;;;;;;922549;153;26409;-75
2022/08/19 10:02:38;;;;;;;2.45;2.25;;;39.40;41.60;;;;;;933214;151;27498;-75
2022/08/19 10:07:50;;;;;;;3.65;2.02;;;38.40;41.10;;;;;;933704;151;26238;-74
2022/08/19 10:10:16;;;;;;;2.40;2.20;;;37.90;41.80;;;;;;923371;152;26312;-75
2022/08/19 10:12:47;;;;;;;3.87;2.42;;;37.50;42.50;;;;;;936915;153;26361;-76
2022/08/19 10:15:09;;;;;;;2.20;2.00;;;37.20;42.70;;;;;;936108;153;26249;-76
2022/08/19 10:17:36;;;;;;;2.58;2.37;;;36.90;43.00;;;;;;936176;153;27464;-76
2022/08/19 10:20:04;;;;;;;2.33;2.20;;;36.70;43.10;;;;;;936183;150;27454;-76
2022/08/19 10:22:29;;;;;;;2.30;2.10;;;36.50;43.10;;;;;;936130;153;27484;-76
2022/08/19 10:24:56;;;;;;;2.35;2.22;;;36.30;43.20;;;;;;935280;151;27329;-75
2022/08/19 10:27:23;;;;;;;3.45;2.22;;;36.20;43.30;;;;;;935714;151;27344;-76
2022/08/19 10:29:49;;;;;;;3.60;2.20;;;36.00;43.30;;;;;;935786;151;27408;-76
2022/08/19 10:32:16;;;;;;;2.37;2.17;;;36.00;43.40;;;;;;934908;151;27483;-76
2022/08/19 10:34:42;;;;;;;2.37;2.20;;;35.90;43.60;;;;;;923462;152;28039;-76
2022/08/19 10:37:09;;;;;;;2.72;2.52;;;35.90;43.40;;;;;;939167;150;27362;-76
2022/08/19 10:39:36;;;;;;;2.75;2.55;;;35.90;43.20;;;;;;922727;150;27361;-76
2022/08/19 10:42:10;;;;;;;3.08;2.60;;;35.80;43.10;;;;;;922414;153;27417;-76
2022/08/19 10:44:35;;;;;;;2.75;2.55;;;35.70;42.90;;;;;;935828;150;27361;-76
2022/08/19 10:47:01;;;;;;;2.70;2.42;;;35.50;43.10;;;;;;935708;150;27361;-76
2022/08/19 10:49:28;;;;;;;4.03;2.55;;;35.40;43.20;;;;;;935840;150;27325;-76
2022/08/19 10:57:28;;;;;;;2.45;2.22;;;35.10;43.60;;;;;;939136;152;27469;-76
2022/08/19 10:59:50;;;;;;;3.25;2.37;;;35.00;43.60;;;;;;937926;150;27414;-76
2022/08/19 11:02:17;;;;;;;2.58;2.35;;;35.00;43.60;;;;;;938806;150;27347;-76
2022/08/19 11:04:43;;;;;;;2.08;1.98;;;35.00;43.40;;;;;;938700;150;27372;-76
2022/08/19 11:07:11;;;;;;;2.40;2.30;;;34.90;42.80;;;;;;939289;152;27427;-76
2022/08/19 11:09:37;;;;;;;2.52;2.22;;;34.80;42.80;;;;;;938569;150;27350;-76
2022/08/19 11:12:03;;;;;;;5.28;2.40;;;34.70;42.90;;;;;;938553;152;27385;-76
2022/08/19 11:14:30;;;;;;;2.58;2.37;;;34.70;42.80;;;;;;938974;150;27366;-76
2022/08/19 11:16:56;;;;;;;2.55;2.35;;;34.60;42.90;;;;;;939100;152;27377;-76
2022/08/19 11:19:23;;;;;;;2.95;2.30;;;34.50;43.10;;;;;;931714;152;27290;-76
2022/08/19 11:21:49;;;;;;;2.55;2.35;;;34.50;43.00;;;;;;923540;153;27487;-76
2022/08/19 11:24:20;;;;;;;2.50;2.30;;;34.40;42.90;;;;;;922979;153;27507;-76
2022/08/19 11:26:46;;;;;;;2.50;2.30;;;34.30;42.40;;;;;;921098;153;27440;-75
2022/08/19 11:29:13;;;;;;;2.15;2.05;;;34.20;42.60;;;;;;923142;153;27506;-76
2022/08/19 11:31:41;;;;;;;2.42;2.30;;;34.10;42.60;;;;;;922261;153;28082;-76
2022/08/19 11:34:08;;;;;;;2.60;2.40;;;33.90;43.30;;;;;;922350;153;27520;-76
2022/08/19 11:36:35;;;;;;;2.52;2.33;;;33.80;43.00;;;;;;921962;153;27403;-75
2022/08/19 11:39:01;;;;;;;3.02;2.80;;;33.70;43.10;;;;;;923209;153;27448;-75
2022/08/19 11:41:28;;;;;;;2.87;2.67;;;33.70;43.20;;;;;;924803;152;27399;-76
2022/08/19 11:43:54;;;;;;;2.92;2.72;;;33.60;43.50;;;;;;940020;150;27462;-75
2022/08/19 11:46:21;;;;;;;2.35;2.25;;;33.60;43.30;;;;;;931662;153;27388;-75
2022/08/19 11:48:49;;;;;;;4.42;2.10;;;33.50;43.00;;;;;;931024;151;27394;-76
2022/08/19 11:51:14;;;;;;;3.70;2.33;;;33.50;42.90;;;;;;931013;154;27371;-75
2022/08/19 11:53:41;;;;;;;2.77;2.30;;;33.40;43.00;;;;;;922242;153;27526;-75
2022/08/19 11:56:07;;;;;;;3.75;2.58;;;33.30;43.20;;;;;;939098;150;27357;-75
2022/08/19 11:58:34;;;;;;;2.60;2.40;;;33.30;43.30;;;;;;952935;148;27359;-75
2022/08/19 12:01:01;;;;;;;2.90;2.50;;;33.20;43.40;;;;;;953756;148;27430;-75
2022/08/19 12:03:27;;;;;;;2.77;2.15;;;33.20;43.50;;;;;;952271;148;27326;-75
2022/08/19 12:05:54;;;;;;;2.22;2.02;;;33.10;43.40;;;;;;953118;148;27399;-75
2022/08/19 12:08:20;;;;;;;2.02;1.92;;;33.10;43.40;;;;;;952803;148;27409;-75
2022/08/19 12:10:47;;;;;;;2.00;1.90;;;33.10;43.30;;;;;;921683;152;27770;-75
2022/08/19 12:13:18;;;;;;;2.25;2.08;;;33.20;43.20;;;;;;952697;148;27366;-75
2022/08/19 12:15:45;;;;;;;2.42;2.27;;;33.20;43.30;;;;;;952776;148;27424;-76
2022/08/19 12:18:09;;;;;;;2.10;2.00;;;33.30;43.20;;;;;;952633;148;27336;-76
2022/08/19 12:20:36;;;;;;;1.75;1.65;;;33.40;42.60;;;;;;953175;148;27380;-75
2022/08/19 12:23:03;;;;;;;2.10;2.00;;;33.40;42.00;;;;;;953012;148;27364;-75
2022/08/19 12:25:30;;;;;;;2.62;2.42;;;33.40;41.90;;;;;;952693;148;27359;-75
2022/08/19 12:27:56;;;;;;;2.30;2.20;;;33.40;41.90;;;;;;952343;148;28743;-75
2022/08/19 12:30:22;;;;;;;2.35;2.25;;;33.30;42.00;;;;;;953025;148;27707;-75
2022/08/19 12:32:50;;;;;;;2.10;2.00;;;33.20;41.80;;;;;;918145;152;27852;-75
2022/08/19 12:35:15;;;;;;;2.10;2.00;;;33.20;41.70;;;;;;941716;150;27304;-75
2022/08/19 12:37:44;;;;;;;2.00;1.90;;;33.10;41.80;;;;;;922096;153;27424;-75
2022/08/19 12:40:11;;;;;;;2.42;2.22;;;33.10;42.00;;;;;;923049;152;27437;-75
2022/08/19 12:42:35;;;;;;;2.70;2.50;;;33.10;42.10;;;;;;918391;152;27432;-75
2022/08/19 12:45:02;;;;;;;2.72;2.52;;;33.00;42.20;;;;;;957987;147;27323;-75
2022/08/19 12:47:30;;;;;;;2.52;2.30;;;33.00;41.90;;;;;;957399;147;27335;-75
2022/08/19 12:49:55;;;;;;;2.60;2.40;;;33.00;42.00;;;;;;956820;147;27440;-75
2022/08/19 12:52:25;;;;;;;3.90;2.45;;;33.00;42.00;;;;;;958475;147;27362;-75
2022/08/19 12:54:51;;;;;;;2.20;2.08;;;33.00;42.00;;;;;;921321;152;27415;-75
2022/08/19 12:57:18;;;;;;;2.12;2.02;;;33.10;42.00;;;;;;939731;150;27310;-75
2022/08/19 12:59:44;;;;;;;2.52;2.40;;;33.20;41.90;;;;;;939352;150;27452;-75
2022/08/19 13:02:11;;;;;;;2.50;2.30;;;33.20;41.70;;;;;;940088;150;27376;-75
2022/08/19 13:04:40;;;;;;;2.37;2.27;;;33.40;41.60;;;;;;940279;150;27401;-75